Latest Coastal Weather Observations for St Helens

IDT60701

Issued at 2:42 am EST Monday 20 May 2019 (issued every 10 minutes, with the page automatically refreshed every 10 minutes)

About coastal observations | Map of coastal stations | Coastal observations for TAS | Marine services | Other Formats
Station Details ID: 092120 Name: ST HELENS AERODROME Lat: -41.34 Lon: 148.28 Height: 48.0 m
Data from the previous 72 hours. | See also: Recent months at St Helens
Date/Time
EST
Wind Sea
Height
m
Swell Vis
km
Cloud Weather Temp
°C
Press
hPa
Rain since
9am
mm
Dir  Spd
kts
Gust
kts
Height
m
Period
s
Dir
20/02:30am WNW 5 7 - - - - 10 Clear - 6.7 1024.3 0.0
20/02:00am N 4 6 - - - - 10 - - 6.5 1024.6 0.0
20/01:30am NNW 6 7 - - - - 10 - - 6.8 1024.7 0.0
20/01:00am N 4 5 - - - - 10 - - 6.7 1024.9 0.0
20/12:30am NNW 3 5 - - - - 10 - - 7.1 1025.3 0.0
20/12:00am NNE 3 5 - - - - 10 - - 7.4 1025.6 0.0
 
Date/Time
EST
Wind Sea
Height
m
Swell Vis
km
Cloud Weather Temp
°C
Press
hPa
Rain since
9am
mm
Dir  Spd
kts
Gust
kts
Height
m
Period
s
Dir
19/11:30pm NW 4 5 - - - - 10 - - 9.1 1025.6 0.0
19/11:00pm N 3 4 - - - - 10 - - 8.7 1025.8 0.0
19/10:30pm W 3 5 - - - - 10 - - 9.0 1026.0 0.0
19/10:00pm W 3 5 - - - - 10 - - 9.6 1026.2 0.0
19/09:30pm W 3 5 - - - - 10 - - 10.1 1026.4 0.0
19/09:00pm NW 3 5 - - - - 10 - - 10.5 1026.6 0.0
19/08:30pm NNW 2 4 - - - - 10 - - 10.4 1026.4 0.0
19/08:00pm NW 5 7 - - - - 10 - - 11.3 1026.1 0.0
19/07:30pm WNW 3 6 - - - - 10 - - 11.7 1026.2 0.0
19/07:00pm WNW 5 6 - - - - 10 - - 12.2 1026.1 0.0
19/06:30pm WNW 4 7 - - - - 10 - - 12.6 1026.0 0.0
19/06:00pm WNW 5 7 - - - - 10 - - 13.0 1026.0 0.0
19/05:30pm NW 5 7 - - - - 10 - - 13.4 1025.9 0.0
19/05:00pm NW 6 8 - - - - 10 - - 13.9 1025.8 0.0
19/04:30pm NW 6 8 - - - - 10 - - 14.5 1026.0 0.0
19/04:00pm NW 6 8 - - - - 10 - - 15.0 1026.4 0.0
19/03:30pm N 5 8 - - - - 10 - - 15.9 1026.3 0.0
19/03:00pm N 5 9 - - - - 10 - - 17.2 1026.4 0.0
19/02:30pm NNW 4 8 - - - - 10 - - 16.6 1026.2 0.0
19/02:00pm N 6 9 - - - - 10 - - 17.0 1026.5 0.0
19/01:30pm NNW 6 8 - - - - 10 - - 18.1 1026.8 0.0
19/01:00pm NNW 5 6 - - - - 10 - - 17.0 1027.2 0.0
19/12:30pm NNW 3 5 - - - - 10 - - 16.0 1027.7 0.0
19/12:00pm N 4 6 - - - - 10 - - 16.1 1028.3 0.0
19/11:30am WNW 3 5 - - - - 10 - - 15.8 1028.6 0.0
19/11:00am WNW 3 5 - - - - 10 - - 14.9 1029.0 0.0
19/10:30am NW 3 5 - - - - 10 - - 13.5 1029.3 0.0
19/10:00am NNW 4 6 - - - - 10 - - 11.5 1029.9 0.0
19/09:30am NNW 6 7 - - - - 10 - - 9.5 1030.2 0.0
19/09:00am NNW 6 7 - - - - 25 Mostly clear Fine 8.2 1030.2 0.2
19/08:30am NW 8 9 - - - - 10 - - 6.9 1030.2 0.2
19/08:00am NW 8 9 - - - - 10 Partly cloudy - 6.1 1030.1 0.2
19/07:30am NW 6 8 - - - - 10 Partly cloudy - 6.2 1030.1 0.0
19/07:00am NW 7 9 - - - - 10 - - 5.9 1030.1 0.0
19/06:30am NW 8 10 - - - - 10 - - 5.4 1030.0 0.0
19/06:00am NW 9 10 - - - - 10 - - 5.2 1029.7 0.0
19/05:30am NW 8 10 - - - - 10 - - 5.1 1029.4 0.0
19/05:00am NW 7 9 - - - - 10 - - 5.0 1029.4 0.0
19/04:30am NW 7 9 - - - - 10 - - 5.0 1029.4 0.0
19/04:00am NW 8 9 - - - - 10 - - 5.1 1029.5 0.0
19/03:30am NW 7 9 - - - - 10 - - 5.3 1029.7 0.0
19/03:00am NNW 7 9 - - - - 10 - - 5.6 1029.9 0.0
19/02:30am NW 8 10 - - - - 10 - - 5.7 1030.2 0.0
19/02:00am NW 6 8 - - - - 10 - - 6.0 1030.2 0.0
19/01:30am NW 5 6 - - - - 10 - - 6.1 1030.3 0.0
19/01:00am WNW 4 6 - - - - 10 - - 6.6 1030.4 0.0
19/12:30am NW 6 7 - - - - 10 - - 7.2 1030.5 0.0
19/12:00am WNW 6 8 - - - - 10 - - 6.8 1030.5 0.0
 
Date/Time
EST
Wind Sea
Height
m
Swell Vis
km
Cloud Weather Temp
°C
Press
hPa
Rain since
9am
mm
Dir  Spd
kts
Gust
kts
Height
m
Period
s
Dir
18/11:30pm NW 5 7 - - - - 10 - - 6.9 1030.4 0.0
18/11:00pm NW 7 9 - - - - 10 - - 7.6 1030.3 0.0
18/10:30pm NW 7 9 - - - - 10 - - 7.7 1030.5 0.0
18/10:00pm NW 7 9 - - - - 10 - - 8.1 1030.4 0.0
18/09:30pm NNW 8 9 - - - - 10 - - 8.2 1030.3 0.0
18/09:00pm NW 8 9 - - - - 10 - - 8.5 1030.0 0.0
18/08:30pm NW 7 8 - - - - 10 - - 8.4 1029.9 0.0
18/08:00pm NNW 5 6 - - - - 10 - - 8.6 1029.6 0.0
18/07:30pm NNW 5 7 - - - - 10 - - 9.1 1029.5 0.0
18/07:00pm S 2 4 - - - - 10 - - 10.8 1029.3 0.0
18/06:30pm SSE 3 5 - - - - 10 - - 13.2 1029.1 0.0
18/06:00pm SSE 3 4 - - - - 10 - - 13.7 1028.9 0.0
18/05:30pm SSE 4 5 - - - - 10 - - 13.6 1028.4 0.0
18/05:00pm SE 2 5 - - - - 10 - - 13.8 1028.3 0.0
18/04:30pm E 3 5 - - - - 10 - - 14.8 1028.0 0.0
18/04:00pm E 6 8 - - - - 10 - - 15.5 1027.9 0.0
18/03:30pm ENE 7 10 - - - - 10 - - 16.3 1027.5 0.0
18/03:00pm ENE 8 10 - - - - 10 - - 16.4 1027.6 0.0
18/02:30pm ENE 9 10 - - - - 10 - - 16.9 1027.4 0.0
18/02:00pm NE 6 8 - - - - 10 - - 18.1 1027.6 0.0
18/01:30pm NE 6 8 - - - - 10 - - 18.1 1027.7 0.0
18/01:00pm N 5 7 - - - - 10 - - 18.2 1027.8 0.0
18/12:30pm NE 4 6 - - - - 10 - - 18.1 1028.1 0.0
18/12:00pm NW 3 5 - - - - 10 - - 17.6 1028.6 0.0
18/11:30am WNW 1 4 - - - - 10 - - 16.8 1028.8 0.0
18/11:00am W 2 5 - - - - 10 - - 15.2 1029.1 0.0
18/10:30am NW 3 4 - - - - 10 - - 13.4 1029.2 0.0
18/10:00am NW 4 6 - - - - 10 - - 11.2 1028.9 0.0
18/09:30am NW 6 9 - - - - 10 - - 9.3 1028.8 0.0
18/09:00am NW 8 11 - - - - 25 Mostly clear Fine 7.3 1029.0 0.4
18/08:30am NNW 8 9 - - - - 10 - - 6.4 1028.5 0.4
18/08:00am NW 9 10 - - - - 10 - - 4.9 1028.5 0.4
18/07:30am NW 8 10 - - - - 10 - - 4.2 1028.3 0.4
18/07:00am NNW 8 9 - - - - 10 - - 4.1 1027.8 0.2
18/06:30am NNW 7 8 - - - - 10 - - 4.6 1027.4 0.2
18/06:00am NW 7 9 - - - - 10 - - 4.9 1027.1 0.2
18/05:30am WNW 5 6 - - - - 10 - - 5.0 1026.8 0.2
18/05:00am NNW 5 7 - - - - 10 - - 5.1 1026.6 0.2
18/04:30am NW 8 9 - - - - 10 - - 5.5 1026.2 0.2
18/04:00am NW 6 7 - - - - 10 - - 6.4 1026.2 0.2
18/03:30am NW 4 5 - - - - 10 - - 6.7 1026.2 0.2
18/03:00am NNW 6 7 - - - - 10 - - 6.9 1026.3 0.2
18/02:30am NNW 6 7 - - - - 10 - - 7.4 1026.2 0.2
18/02:00am NNW 7 9 - - - - 10 - - 7.4 1026.4 0.2
18/01:30am NW 5 9 - - - - 10 - - 8.1 1026.4 0.2
18/01:00am NNW 6 7 - - - - 10 - - 7.8 1026.6 0.2
18/12:30am NNW 7 8 - - - - 10 - - 8.4 1026.8 0.2
18/12:00am NNW 5 8 - - - - 10 - - 8.4 1027.1 0.2
 
Date/Time
EST
Wind Sea
Height
m
Swell Vis
km
Cloud Weather Temp
°C
Press
hPa
Rain since
9am
mm
Dir  Spd
kts
Gust
kts
Height
m
Period
s
Dir
17/11:30pm NNW 7 8 - - - - 10 - - 8.6 1027.1 0.2
17/11:00pm N 7 9 - - - - 10 - - 8.8 1027.0 0.2
17/10:30pm NNW 6 8 - - - - 10 - - 9.0 1027.0 0.2
17/10:00pm NNW 7 9 - - - - 10 - - 8.8 1027.0 0.0
17/09:30pm NW 6 8 - - - - 10 - - 9.2 1027.0 0.0
17/09:00pm NNW 5 7 - - - - 10 - - 9.5 1026.8 0.0
17/08:30pm NNW 4 7 - - - - 10 - - 10.0 1026.3 0.0
17/08:00pm NNW 5 6 - - - - 10 - - 10.2 1026.0 0.0
17/07:30pm NNW 4 6 - - - - 10 - - 10.7 1025.9 0.0
17/07:00pm NW 6 7 - - - - 10 - - 11.4 1025.5 0.0
17/06:30pm NNW 5 7 - - - - 10 - - 12.5 1025.1 0.0
17/06:00pm W 3 5 - - - - 10 - - 12.8 1024.9 0.0
17/05:30pm WSW 3 5 - - - - 10 - - 13.3 1024.3 0.0
17/05:00pm WNW 6 9 - - - - 10 - - 14.4 1024.0 0.0
17/04:30pm NW 5 9 - - - - 10 - - 16.4 1023.6 0.0
17/04:00pm CALM 0 4 - - - - 10 - - 17.6 1023.6 0.0
17/03:30pm ENE 3 5 - - - - 10 - - 17.2 1023.5 0.0
17/03:00pm E 6 9 - - - - 10 - - 17.0 1023.5 0.0
17/02:30pm E 5 8 - - - - 10 - - 17.1 1023.2 0.0
17/02:00pm SE 3 6 - - - - 10 - - 17.2 1023.3 0.0
17/01:30pm ENE 5 8 - - - - 10 - - 16.7 1023.4 0.0
17/01:00pm ENE 7 9 - - - - 10 - - 16.9 1023.6 0.0
17/12:30pm NE 6 8 - - - - 10 - - 16.7 1023.9 0.0
17/12:00pm NE 4 7 - - - - 10 - - 16.0 1024.4 0.0
17/11:30am N 3 5 - - - - 10 - - 17.0 1024.7 0.0
17/11:00am CALM 0 0 - - - - 10 - - 15.6 1025.1 0.0
17/10:30am WNW 1 4 - - - - 10 - - 15.9 1025.2 0.0
17/10:00am CALM 0 0 - - - - 10 - - 13.9 1025.5 0.0
17/09:30am NNE 2 4 - - - - 10 - - 13.3 1025.3 0.0
17/09:00am N 1 4 - - - - 25 Partly cloudy Fine 10.6 1025.3 0.2
17/08:30am N 3 4 - - - - 10 - - 10.7 1025.0 0.2
17/08:00am WNW 1 4 - - - - 10 - - 9.0 1024.8 0.2
17/07:30am NNW 3 5 - - - - 10 - - 8.8 1024.6 0.2
17/07:00am NW 4 6 - - - - 10 - - 8.7 1024.3 0.2
17/06:30am SW 2 4 - - - - 10 - - 10.4 1024.2 0.2
17/06:00am WNW 4 7 - - - - 10 - - 9.4 1024.1 0.2
17/05:30am NNW 4 6 - - - - 10 - - 9.5 1023.7 0.2
17/05:00am N 4 6 - - - - 10 - - 8.7 1023.6 0.2
17/04:30am N 4 7 - - - - 10 - - 7.7 1023.4 0.2
17/04:00am NNW 4 6 - - - - 10 - - 7.5 1023.4 0.2
17/03:30am NNW 3 5 - - - - 10 - - 6.7 1023.5 0.2
17/03:00am N 5 6 - - - - 10 - - 6.6 1023.8 0.2

Other formats

Comma delimited format used in spreadsheet applications
http://www.bom.gov.au/fwo/IDT60701/IDT60701.95981.axf

JavaScript Object Notation format (JSON) in row-major order
http://www.bom.gov.au/fwo/IDT60701/IDT60701.95981.json

Data quality

Most of these data are generated automatically and are frequently updated. Quality checks on data are not normally performed. It is possible for incorrect values to appear. Refer to information at About Latest Weather Observations and please check the disclaimer before using these data.